Time;durP1;ratioP1;P1;durP2;ratioP2;P2;SDS_P1;SDS_P2;PMS_P1;PMS_P2;Temp;Humidity;BMP_temperature;BMP_pressure;BME280_temperature;BME280_humidity;BME280_pressure;Samples;Min_cycle;Max_cycle;Signal;HPM_P1;HPM_P2
2023/03/20 00:01:23;;;;;;;18.88;12.88;;;6.80;99.90;;;;;;5137052;28;20027;-60
2023/03/20 00:03:50;;;;;;;19.00;12.85;;;6.60;99.90;;;;;;5137101;28;20035;-61
2023/03/20 00:06:17;;;;;;;21.55;13.43;;;6.60;99.90;;;;;;5137080;28;20050;-60
2023/03/20 00:08:45;;;;;;;21.13;12.63;;;6.60;99.90;;;;;;5137888;27;20075;-60
2023/03/20 00:11:25;;;;;;;21.40;13.20;;;6.60;99.90;;;;;;5137764;27;20035;-60
2023/03/20 00:14:10;;;;;;;22.10;12.90;;;6.60;99.90;;;;;;5137859;27;20355;-60
2023/03/20 00:16:43;;;;;;;22.83;12.77;;;6.50;99.90;;;;;;5137766;27;20035;-60
2023/03/20 00:19:16;;;;;;;23.02;13.52;;;6.50;99.90;;;;;;5137800;27;20034;-60
2023/03/20 00:21:44;;;;;;;24.17;13.07;;;6.50;99.90;;;;;;5136866;28;20087;-60
2023/03/20 00:24:10;;;;;;;24.50;13.20;;;6.50;99.90;;;;;;5137722;27;20337;-60
2023/03/20 00:26:37;;;;;;;24.95;13.32;;;6.60;99.90;;;;;;5137636;28;20039;-60
2023/03/20 00:29:05;;;;;;;23.55;12.70;;;6.60;99.90;;;;;;5137627;27;20059;-61
2023/03/20 00:31:34;;;;;;;21.23;13.50;;;6.70;99.90;;;;;;5137629;27;20296;-61
2023/03/20 00:34:06;;;;;;;23.10;13.32;;;6.60;99.90;;;;;;5136852;28;20031;-61
2023/03/20 00:36:32;;;;;;;21.63;13.02;;;6.70;99.90;;;;;;5136973;28;20304;-61
2023/03/20 00:38:58;;;;;;;25.70;13.73;;;6.80;99.90;;;;;;5137523;27;20034;-61
2023/03/20 00:41:38;;;;;;;20.40;12.75;;;6.80;99.90;;;;;;5137354;28;20164;-60
2023/03/20 00:44:22;;;;;;;25.17;13.35;;;6.90;99.90;;;;;;5136801;28;20038;-60
2023/03/20 00:46:54;;;;;;;20.52;12.90;;;6.90;99.90;;;;;;5140251;27;20019;-60
2023/03/20 00:49:48;;;;;;;22.33;12.63;;;6.80;99.90;;;;;;5141657;27;20394;-60
2023/03/20 00:52:19;;;;;;;22.58;12.35;;;6.60;99.90;;;;;;5138804;27;20039;-60
2023/03/20 00:54:45;;;;;;;24.17;13.00;;;6.50;99.90;;;;;;5140541;27;20441;-60
2023/03/20 00:57:25;;;;;;;19.83;12.38;;;6.40;99.90;;;;;;5140510;27;20054;-60
2023/03/20 01:00:02;;;;;;;21.48;12.50;;;6.30;99.90;;;;;;5140599;27;20098;-59
2023/03/20 01:02:29;;;;;;;20.13;12.32;;;6.30;99.90;;;;;;5123316;27;20087;-60
2023/03/20 01:04:56;;;;;;;22.45;13.00;;;6.20;99.90;;;;;;5141388;27;20035;-60
2023/03/20 01:07:22;;;;;;;21.15;13.57;;;6.10;99.90;;;;;;5123069;27;20054;-60
2023/03/20 01:09:47;;;;;;;23.83;13.65;;;6.10;99.90;;;;;;5141259;27;20352;-60
2023/03/20 01:12:15;;;;;;;23.00;13.20;;;6.10;99.90;;;;;;5122937;27;20035;-60
2023/03/20 01:14:42;;;;;;;24.23;14.05;;;6.10;99.90;;;;;;5122902;27;20300;-60
2023/03/20 01:17:19;;;;;;;23.15;13.27;;;6.10;99.90;;;;;;5140781;27;20054;-60
2023/03/20 01:19:48;;;;;;;22.38;13.15;;;6.10;99.90;;;;;;5141166;27;20042;-60
2023/03/20 01:22:16;;;;;;;22.30;13.45;;;6.10;99.90;;;;;;5139938;27;20031;-60
2023/03/20 01:24:42;;;;;;;24.13;13.30;;;6.10;99.90;;;;;;5139844;27;20023;-60
2023/03/20 01:27:17;;;;;;;22.15;12.43;;;6.20;99.90;;;;;;5140867;27;20303;-60
2023/03/20 01:29:43;;;;;;;24.58;12.60;;;6.10;99.90;;;;;;5140445;27;20031;-60
2023/03/20 01:32:16;;;;;;;20.52;12.57;;;6.10;99.90;;;;;;5139688;27;20035;-60
2023/03/20 01:34:46;;;;;;;20.42;12.90;;;6.10;99.90;;;;;;5139671;27;20038;-60
2023/03/20 01:37:16;;;;;;;21.20;12.07;;;6.20;99.90;;;;;;5140044;27;20027;-60
2023/03/20 01:39:42;;;;;;;17.55;12.82;;;6.20;99.90;;;;;;5140149;27;20027;-61
2023/03/20 01:42:11;;;;;;;19.73;11.25;;;6.20;99.90;;;;;;5122602;27;20058;-60
2023/03/20 01:44:37;;;;;;;20.67;12.30;;;6.30;99.90;;;;;;5139460;27;20345;-60
2023/03/20 01:47:15;;;;;;;18.42;11.35;;;6.30;99.90;;;;;;5139375;27;20439;-60
2023/03/20 01:50:21;;;;;;;21.63;11.90;;;6.30;99.90;;;;;;5140129;27;20027;-60
2023/03/20 01:52:51;;;;;;;20.23;11.82;;;6.40;99.90;;;;;;5139239;27;20035;-60
2023/03/20 01:55:19;;;;;;;19.58;11.95;;;6.40;99.90;;;;;;5139254;27;20102;-60
2023/03/20 01:57:53;;;;;;;18.52;11.93;;;6.40;99.90;;;;;;5122654;27;20027;-60
2023/03/20 02:00:19;;;;;;;23.17;11.73;;;6.40;99.90;;;;;;5139148;27;20051;-60
2023/03/20 02:02:47;;;;;;;17.17;11.70;;;6.50;99.90;;;;;;5139144;27;20027;-60
2023/03/20 02:05:31;;;;;;;21.73;11.38;;;6.40;99.90;;;;;;5139161;27;20118;-59
2023/03/20 02:08:21;;;;;;;17.38;11.40;;;6.40;99.90;;;;;;5122301;27;20307;-60
2023/03/20 02:10:48;;;;;;;17.73;10.85;;;6.40;99.90;;;;;;5138748;27;20038;-61
2023/03/20 02:13:26;;;;;;;20.85;11.48;;;6.40;99.90;;;;;;5138923;27;20034;-60
2023/03/20 02:16:06;;;;;;;19.23;10.60;;;6.40;99.90;;;;;;5138860;27;20265;-60
2023/03/20 02:18:55;;;;;;;17.30;11.00;;;6.40;99.90;;;;;;5118320;27;20034;-60
2023/03/20 02:21:57;;;;;;;20.20;11.20;;;6.40;99.90;;;;;;5138659;27;20027;-61
2023/03/20 02:24:51;;;;;;;20.75;10.50;;;6.40;99.90;;;;;;5138725;27;20041;-60
2023/03/20 02:27:30;;;;;;;18.90;10.50;;;6.50;99.90;;;;;;5138672;27;20023;-60
2023/03/20 02:30:08;;;;;;;21.17;10.93;;;6.40;99.90;;;;;;5138558;27;20046;-60
2023/03/20 02:32:51;;;;;;;19.60;10.75;;;6.50;99.90;;;;;;5138738;27;20043;-62
2023/03/20 02:35:36;;;;;;;18.40;11.18;;;6.50;99.90;;;;;;5138521;27;20299;-60
2023/03/20 02:38:29;;;;;;;18.60;10.20;;;6.50;99.90;;;;;;5139258;27;20034;-60
2023/03/20 02:41:26;;;;;;;17.42;9.95;;;6.50;99.90;;;;;;5138171;27;20035;-60
2023/03/20 02:44:05;;;;;;;20.13;11.00;;;6.50;99.90;;;;;;5138316;27;20076;-60
2023/03/20 02:46:37;;;;;;;17.63;10.52;;;6.50;99.90;;;;;;5139324;27;20038;-60
2023/03/20 02:49:35;;;;;;;18.50;10.07;;;6.50;99.90;;;;;;5138354;27;20023;-60
2023/03/20 02:52:35;;;;;;;17.70;10.48;;;6.50;99.90;;;;;;5138881;27;20333;-60
2023/03/20 02:55:23;;;;;;;17.10;10.57;;;6.50;99.90;;;;;;5138936;27;20019;-59
2023/03/20 02:57:52;;;;;;;20.10;11.05;;;6.40;99.90;;;;;;5121038;27;20034;-60
2023/03/20 03:00:35;;;;;;;20.85;11.05;;;6.40;99.90;;;;;;5137964;27;20039;-60
2023/03/20 03:03:10;;;;;;;17.20;10.75;;;6.30;99.90;;;;;;5138286;27;20399;-60
2023/03/20 03:05:42;;;;;;;19.65;11.23;;;6.30;99.90;;;;;;5138923;27;20027;-59
2023/03/20 03:08:12;;;;;;;22.58;12.10;;;6.30;99.90;;;;;;5137946;27;20027;-60
2023/03/20 03:11:05;;;;;;;20.27;11.63;;;6.40;99.90;;;;;;5137692;27;20281;-59
2023/03/20 03:13:36;;;;;;;20.70;12.05;;;6.50;99.90;;;;;;5138077;27;20035;-59
2023/03/20 03:16:11;;;;;;;24.70;11.45;;;6.40;99.90;;;;;;5138526;27;20076;-59
2023/03/20 03:18:39;;;;;;;19.52;11.13;;;6.40;99.90;;;;;;5138570;27;20058;-59
2023/03/20 03:21:07;;;;;;;20.83;11.57;;;6.40;99.90;;;;;;5137623;27;20031;-60
2023/03/20 03:23:44;;;;;;;25.55;12.20;;;6.50;99.90;;;;;;5137615;27;20050;-60
2023/03/20 03:26:24;;;;;;;19.50;11.00;;;6.60;99.90;;;;;;5137465;27;20070;-60
2023/03/20 03:29:00;;;;;;;19.88;10.80;;;6.60;99.90;;;;;;5137498;27;20027;-61
2023/03/20 03:31:28;;;;;;;18.60;11.20;;;6.60;99.90;;;;;;5137428;27;20407;-60
2023/03/20 03:33:56;;;;;;;23.58;11.27;;;6.60;99.90;;;;;;5138180;27;20039;-60
2023/03/20 03:36:31;;;;;;;20.30;10.90;;;6.60;99.90;;;;;;5137381;27;20027;-60
2023/03/20 03:39:02;;;;;;;20.13;10.68;;;6.60;99.90;;;;;;5138176;27;20034;-60
2023/03/20 03:41:34;;;;;;;19.33;10.68;;;6.70;99.90;;;;;;5137929;27;20414;-59
2023/03/20 03:44:29;;;;;;;18.98;10.93;;;6.60;99.90;;;;;;5138408;27;20035;-60
2023/03/20 03:47:03;;;;;;;22.65;11.27;;;6.50;99.90;;;;;;5137334;27;20023;-59
2023/03/20 03:49:34;;;;;;;20.17;11.00;;;6.50;99.90;;;;;;5137253;27;20030;-60
2023/03/20 03:52:05;;;;;;;23.95;11.52;;;6.50;99.90;;;;;;5137193;28;20027;-59
2023/03/20 03:54:39;;;;;;;19.38;10.95;;;6.40;99.90;;;;;;5138013;27;20029;-59
2023/03/20 03:57:47;;;;;;;21.77;10.75;;;6.40;99.90;;;;;;5128228;27;20123;-59
2023/03/20 04:00:22;;;;;;;23.73;11.02;;;6.40;99.90;;;;;;5137340;28;20020;-59
2023/03/20 04:02:52;;;;;;;22.17;11.50;;;6.40;99.90;;;;;;5138010;27;20039;-60
2023/03/20 04:05:20;;;;;;;21.15;10.88;;;6.50;99.90;;;;;;5137843;27;20422;-60
2023/03/20 04:07:51;;;;;;;20.48;11.20;;;6.50;99.90;;;;;;5137021;28;20091;-60
2023/03/20 04:10:17;;;;;;;21.55;10.32;;;6.50;99.90;;;;;;5137818;27;20078;-60
2023/03/20 04:12:44;;;;;;;17.83;10.52;;;6.40;99.90;;;;;;5138315;28;20058;-59
2023/03/20 04:15:12;;;;;;;22.50;10.40;;;6.50;99.90;;;;;;5137760;27;20465;-58
2023/03/20 04:17:37;;;;;;;18.90;10.05;;;6.50;99.90;;;;;;5137028;28;20038;-61
2023/03/20 04:20:05;;;;;;;20.45;11.10;;;6.50;99.90;;;;;;5120048;27;20349;-59
2023/03/20 04:22:33;;;;;;;21.17;10.85;;;6.50;99.90;;;;;;5141877;27;20023;-58
2023/03/20 04:25:05;;;;;;;18.25;10.10;;;6.60;99.90;;;;;;5141243;27;20039;-58
2023/03/20 04:27:31;;;;;;;19.08;10.75;;;6.50;99.90;;;;;;5123983;27;20031;-59
2023/03/20 04:29:57;;;;;;;24.27;10.68;;;6.50;99.90;;;;;;5140885;27;20042;-58
2023/03/20 04:32:42;;;;;;;23.38;10.10;;;6.60;99.90;;;;;;5141846;27;20091;-58
2023/03/20 04:35:24;;;;;;;17.95;9.60;;;6.50;99.90;;;;;;5140877;27;20058;-58
2023/03/20 04:37:55;;;;;;;22.00;10.13;;;6.40;99.90;;;;;;5141636;27;20031;-59
2023/03/20 04:40:21;;;;;;;20.67;10.88;;;6.40;99.90;;;;;;5123515;27;20051;-59
2023/03/20 04:42:47;;;;;;;23.08;9.88;;;6.40;99.90;;;;;;5123666;27;20288;-58
2023/03/20 04:45:13;;;;;;;25.52;11.18;;;6.40;99.90;;;;;;5141351;27;20118;-60
2023/03/20 04:47:39;;;;;;;18.15;9.85;;;6.40;99.90;;;;;;5140603;27;20050;-58
2023/03/20 04:50:06;;;;;;;26.83;10.23;;;6.50;99.90;;;;;;5140559;27;20070;-59
2023/03/20 04:52:32;;;;;;;22.05;10.63;;;6.40;99.90;;;;;;5141244;27;20106;-59
2023/03/20 04:54:58;;;;;;;19.95;10.10;;;6.40;99.90;;;;;;5141097;27;20400;-59
2023/03/20 04:57:24;;;;;;;23.77;10.20;;;6.50;99.90;;;;;;5140535;27;20277;-58
2023/03/20 04:59:50;;;;;;;18.38;9.70;;;6.50;99.90;;;;;;5140346;27;20024;-59
2023/03/20 05:02:17;;;;;;;20.85;9.85;;;6.50;99.90;;;;;;5123211;27;20311;-59
2023/03/20 05:04:42;;;;;;;24.88;9.88;;;6.50;99.90;;;;;;5141058;27;20033;-60
2023/03/20 05:07:10;;;;;;;19.10;9.73;;;6.50;99.90;;;;;;5140188;27;20031;-59
2023/03/20 05:09:48;;;;;;;24.95;9.60;;;6.50;99.90;;;;;;5140345;27;20295;-59
2023/03/20 05:12:14;;;;;;;19.80;9.68;;;6.50;99.90;;;;;;5139939;27;20031;-59
2023/03/20 05:15:00;;;;;;;21.60;10.18;;;6.60;99.90;;;;;;5126217;27;20038;-60
2023/03/20 05:17:35;;;;;;;24.15;9.02;;;6.50;99.90;;;;;;5140416;27;20071;-58
2023/03/20 05:20:18;;;;;;;25.35;9.95;;;6.50;99.90;;;;;;5125718;27;20027;-58
2023/03/20 05:23:02;;;;;;;18.30;9.35;;;6.50;99.90;;;;;;5139957;27;20027;-58
2023/03/20 05:26:01;;;;;;;27.85;10.05;;;6.50;99.90;;;;;;5095231;27;20054;-58
2023/03/20 05:28:36;;;;;;;19.40;9.02;;;6.50;99.90;;;;;;5139840;27;20408;-58
2023/03/20 05:31:25;;;;;;;17.88;8.80;;;6.60;99.90;;;;;;5129429;27;20035;-60
2023/03/20 05:34:09;;;;;;;24.95;9.68;;;6.60;99.90;;;;;;5139938;27;20089;-59
2023/03/20 05:36:59;;;;;;;16.55;8.75;;;6.60;99.90;;;;;;5129316;27;20023;-58
2023/03/20 05:39:51;;;;;;;20.02;8.60;;;6.60;99.90;;;;;;5136948;27;20027;-59
2023/03/20 05:42:40;;;;;;;22.50;8.40;;;6.60;99.90;;;;;;5129143;27;20036;-59
2023/03/20 05:45:15;;;;;;;22.75;8.68;;;6.60;99.90;;;;;;5139595;27;20035;-59
2023/03/20 05:47:52;;;;;;;20.98;8.43;;;6.70;99.90;;;;;;5123927;27;20039;-60
2023/03/20 05:50:28;;;;;;;18.05;8.10;;;6.70;99.90;;;;;;5139496;27;20103;-60
2023/03/20 05:53:11;;;;;;;20.08;8.60;;;6.70;99.90;;;;;;5139679;27;20036;-59
2023/03/20 05:55:56;;;;;;;18.17;8.57;;;6.70;99.90;;;;;;5140088;27;20046;-59
2023/03/20 05:58:41;;;;;;;25.88;8.93;;;6.60;99.90;;;;;;5140261;27;20118;-60
2023/03/20 06:01:39;;;;;;;18.98;8.60;;;6.60;99.90;;;;;;5094503;27;20281;-59
2023/03/20 06:04:38;;;;;;;20.15;8.40;;;6.60;99.90;;;;;;5128994;27;20031;-59
2023/03/20 06:07:39;;;;;;;22.58;8.95;;;6.60;99.90;;;;;;5127759;27;20095;-60
2023/03/20 06:10:10;;;;;;;19.35;8.60;;;6.70;99.90;;;;;;5139028;27;20142;-60
2023/03/20 06:12:37;;;;;;;18.10;8.45;;;6.60;99.90;;;;;;5138543;27;20329;-59
2023/03/20 06:15:05;;;;;;;23.45;8.98;;;6.70;99.90;;;;;;5139530;27;20027;-59
2023/03/20 06:17:34;;;;;;;17.77;8.70;;;6.70;99.90;;;;;;5122131;27;20063;-59
2023/03/20 06:20:03;;;;;;;23.77;8.80;;;6.60;99.90;;;;;;5139428;27;20027;-59
2023/03/20 06:22:29;;;;;;;18.95;8.13;;;6.70;99.90;;;;;;5138751;27;20034;-59
2023/03/20 06:24:56;;;;;;;18.90;8.45;;;6.80;99.90;;;;;;5121448;27;20304;-61
2023/03/20 06:27:27;;;;;;;14.32;6.38;;;6.90;99.90;;;;;;5122704;27;20066;-58
2023/03/20 06:29:53;;;;;;;20.10;8.25;;;6.80;99.90;;;;;;5139275;27;20423;-59
2023/03/20 06:32:26;;;;;;;19.85;8.18;;;6.90;99.90;;;;;;5138389;27;20031;-59
2023/03/20 06:34:55;;;;;;;19.90;8.40;;;6.90;99.90;;;;;;5138157;27;20042;-59
2023/03/20 06:37:21;;;;;;;16.42;7.78;;;6.90;99.90;;;;;;5138940;27;20060;-59
2023/03/20 06:39:47;;;;;;;22.48;8.57;;;6.80;99.90;;;;;;5138263;27;20291;-58
2023/03/20 06:42:14;;;;;;;20.65;8.43;;;6.80;99.90;;;;;;5138298;27;20061;-58
2023/03/20 06:44:40;;;;;;;21.98;8.57;;;6.80;99.90;;;;;;5121067;27;20329;-59
2023/03/20 06:47:12;;;;;;;15.32;7.70;;;6.80;99.90;;;;;;5138637;27;20027;-59
2023/03/20 06:49:38;;;;;;;20.85;8.68;;;6.70;99.90;;;;;;5137954;27;20035;-59
2023/03/20 06:52:05;;;;;;;19.02;8.40;;;6.80;99.90;;;;;;5138882;27;20426;-59
2023/03/20 06:54:32;;;;;;;21.08;8.85;;;6.80;99.90;;;;;;5137943;27;20031;-60
2023/03/20 06:56:58;;;;;;;22.63;8.45;;;6.80;99.90;;;;;;5138707;27;20034;-59
2023/03/20 06:59:25;;;;;;;24.25;8.25;;;6.80;99.90;;;;;;5137826;27;20033;-59
2023/03/20 07:01:55;;;;;;;13.40;7.75;;;6.80;99.90;;;;;;5137879;27;20035;-59
2023/03/20 07:04:21;;;;;;;21.23;8.70;;;6.90;99.90;;;;;;5137678;27;20027;-59
2023/03/20 07:06:51;;;;;;;19.08;7.65;;;7.00;99.90;;;;;;5121342;27;20317;-59
2023/03/20 07:09:17;;;;;;;19.15;7.90;;;7.00;99.90;;;;;;5137648;27;20092;-60
2023/03/20 07:11:43;;;;;;;18.75;7.65;;;7.00;99.90;;;;;;5137615;27;20042;-59
2023/03/20 07:14:10;;;;;;;20.60;7.28;;;7.00;99.90;;;;;;5120666;27;20391;-59
2023/03/20 07:16:46;;;;;;;16.88;6.95;;;7.00;99.90;;;;;;5122026;27;20031;-59
2023/03/20 07:19:12;;;;;;;17.42;7.35;;;7.20;99.90;;;;;;5137477;27;20038;-59
2023/03/20 07:21:41;;;;;;;15.40;6.95;;;7.20;99.90;;;;;;5137399;27;20304;-60
2023/03/20 07:24:07;;;;;;;15.50;7.40;;;7.30;99.90;;;;;;5137539;27;20100;-59
2023/03/20 07:26:33;;;;;;;15.90;6.63;;;7.10;99.90;;;;;;5137597;27;20305;-59
2023/03/20 07:28:59;;;;;;;20.05;7.45;;;7.10;99.90;;;;;;5137441;27;20110;-59
2023/03/20 07:31:31;;;;;;;20.33;7.00;;;7.20;99.90;;;;;;5137508;27;20054;-60
2023/03/20 07:34:13;;;;;;;18.70;6.78;;;7.20;99.90;;;;;;5138201;27;20384;-59
2023/03/20 07:36:40;;;;;;;18.55;6.85;;;7.40;99.90;;;;;;5137459;27;20032;-59
2023/03/20 07:39:07;;;;;;;20.20;6.22;;;7.30;99.90;;;;;;5137284;27;20035;-59
2023/03/20 07:41:35;;;;;;;21.20;6.47;;;7.40;99.90;;;;;;5120347;28;20070;-59
2023/03/20 07:44:06;;;;;;;16.35;6.05;;;7.50;99.90;;;;;;5137232;27;20096;-60
2023/03/20 07:46:52;;;;;;;17.83;6.47;;;7.60;99.90;;;;;;5137631;27;20041;-60
2023/03/20 07:49:22;;;;;;;16.98;6.35;;;7.50;99.90;;;;;;5137231;27;20151;-59
2023/03/20 07:51:49;;;;;;;14.13;5.80;;;7.70;99.90;;;;;;5137882;27;20035;-59
2023/03/20 07:54:16;;;;;;;13.60;6.22;;;7.70;99.90;;;;;;5120065;28;20039;-59
2023/03/20 07:56:42;;;;;;;16.23;6.50;;;7.80;99.90;;;;;;5085975;28;20024;-59
2023/03/20 07:59:08;;;;;;;23.90;6.13;;;7.80;99.90;;;;;;5137975;27;20024;-59
2023/03/20 08:01:34;;;;;;;15.35;5.55;;;7.90;99.90;;;;;;5137929;27;20388;-60
2023/03/20 08:04:00;;;;;;;17.35;5.63;;;7.90;99.90;;;;;;5120406;28;20352;-60
2023/03/20 08:06:26;;;;;;;17.20;5.30;;;8.00;99.90;;;;;;5137837;28;20042;-61
2023/03/20 08:08:51;;;;;;;11.80;4.68;;;7.90;99.90;;;;;;5137858;28;20324;-60
2023/03/20 08:11:18;;;;;;;16.17;6.30;;;7.80;99.90;;;;;;5137127;28;20316;-60
2023/03/20 08:13:44;;;;;;;16.23;5.88;;;7.80;99.90;;;;;;5136915;28;20037;-60
2023/03/20 08:16:10;;;;;;;13.50;4.97;;;7.80;99.90;;;;;;5137760;28;20091;-60
2023/03/20 08:18:36;;;;;;;21.05;6.03;;;7.70;99.90;;;;;;5137630;28;20023;-59
2023/03/20 08:21:03;;;;;;;16.10;5.13;;;7.60;99.90;;;;;;5136971;28;20019;-60
2023/03/20 08:23:29;;;;;;;10.63;5.20;;;7.60;99.90;;;;;;5137645;28;20042;-59
2023/03/20 08:25:57;;;;;;;15.65;4.75;;;7.70;99.90;;;;;;5137600;27;20155;-59
2023/03/20 08:28:23;;;;;;;13.27;5.30;;;7.90;99.90;;;;;;5136814;28;20027;-59
2023/03/20 08:30:49;;;;;;;14.10;4.70;;;8.00;99.90;;;;;;5137567;28;20057;-59
2023/03/20 08:33:17;;;;;;;16.90;5.03;;;8.10;99.90;;;;;;5137390;27;20039;-59
2023/03/20 08:35:43;;;;;;;13.93;4.40;;;8.00;99.90;;;;;;5137502;27;20059;-59
2023/03/20 08:38:12;;;;;;;14.88;4.65;;;7.90;99.90;;;;;;5136816;28;20016;-59
2023/03/20 08:40:41;;;;;;;14.75;4.65;;;7.90;99.90;;;;;;5137223;27;20430;-59
2023/03/20 08:43:07;;;;;;;14.98;4.70;;;8.10;99.90;;;;;;5136620;28;20118;-59
2023/03/20 08:45:33;;;;;;;17.13;4.95;;;7.90;99.90;;;;;;5137413;27;20035;-58
2023/03/20 08:47:58;;;;;;;16.15;4.05;;;8.00;99.90;;;;;;5136586;28;20023;-58
2023/03/20 08:50:24;;;;;;;17.38;5.00;;;8.00;99.90;;;;;;5137328;27;20225;-59
2023/03/20 08:52:51;;;;;;;9.50;4.03;;;7.80;99.90;;;;;;5137048;28;20267;-59
2023/03/20 08:55:16;;;;;;;15.85;4.50;;;7.90;99.90;;;;;;5136492;28;20065;-59
2023/03/20 08:57:42;;;;;;;14.43;4.07;;;8.00;99.90;;;;;;5137286;28;20030;-58
2023/03/20 09:00:11;;;;;;;12.25;4.63;;;8.10;99.90;;;;;;5137249;28;20024;-59
2023/03/20 09:02:37;;;;;;;12.57;4.47;;;8.10;99.90;;;;;;5137327;27;20031;-59
2023/03/20 09:05:03;;;;;;;9.50;4.00;;;8.10;99.90;;;;;;5137245;27;20027;-59
2023/03/20 09:07:32;;;;;;;11.15;4.03;;;8.20;99.90;;;;;;5137799;27;20035;-58
2023/03/20 09:09:58;;;;;;;12.75;4.13;;;8.20;99.90;;;;;;5123793;27;20035;-59
2023/03/20 09:12:23;;;;;;;14.05;3.92;;;8.20;99.90;;;;;;5140818;27;20046;-60
2023/03/20 09:14:49;;;;;;;12.23;3.88;;;8.30;99.90;;;;;;5140768;27;20031;-62
2023/03/20 09:17:15;;;;;;;13.68;4.32;;;8.30;99.90;;;;;;5122943;27;20023;-60
2023/03/20 09:19:43;;;;;;;15.10;3.90;;;8.40;99.90;;;;;;5140025;27;20028;-60
2023/03/20 09:22:12;;;;;;;15.02;4.05;;;8.50;99.90;;;;;;5141014;27;20039;-60
2023/03/20 09:24:38;;;;;;;13.48;4.07;;;8.60;99.90;;;;;;5140620;27;20314;-60
2023/03/20 09:27:04;;;;;;;10.90;3.50;;;8.60;99.90;;;;;;5140587;27;20027;-62
2023/03/20 09:29:30;;;;;;;9.02;3.55;;;8.50;99.90;;;;;;5140529;27;20392;-60
2023/03/20 09:31:56;;;;;;;18.95;4.75;;;8.50;99.90;;;;;;5140412;27;20110;-60
2023/03/20 09:34:23;;;;;;;15.90;3.78;;;8.50;99.90;;;;;;5140429;27;20027;-60
2023/03/20 09:36:49;;;;;;;15.23;4.28;;;8.50;99.90;;;;;;5123344;27;20038;-58
2023/03/20 09:39:15;;;;;;;13.80;3.92;;;8.80;99.90;;;;;;5122505;27;20042;-60
2023/03/20 09:41:47;;;;;;;11.75;3.80;;;9.00;99.90;;;;;;5105311;27;20047;-59
2023/03/20 09:44:34;;;;;;;11.77;3.53;;;9.20;99.90;;;;;;5139596;27;20043;-60
2023/03/20 09:47:15;;;;;;;12.63;4.35;;;9.00;99.90;;;;;;5140536;27;20066;-61
2023/03/20 09:50:13;;;;;;;16.85;3.92;;;9.00;99.90;;;;;;5140053;27;20032;-60
2023/03/20 09:53:07;;;;;;;14.65;4.00;;;9.00;99.90;;;;;;5140188;27;20064;-60
2023/03/20 09:55:39;;;;;;;16.60;4.97;;;9.20;99.90;;;;;;5108093;27;20043;-59
2023/03/20 09:58:20;;;;;;;11.18;3.30;;;9.20;99.90;;;;;;5140343;27;20034;-60
2023/03/20 10:00:47;;;;;;;16.00;4.35;;;9.40;97.40;;;;;;5139948;27;20034;-59
2023/03/20 10:03:17;;;;;;;8.75;3.50;;;9.50;98.10;;;;;;5139983;27;20102;-60
2023/03/20 10:06:01;;;;;;;12.30;3.63;;;9.50;96.30;;;;;;5139779;27;20144;-60
2023/03/20 10:08:32;;;;;;;14.98;3.83;;;9.40;97.60;;;;;;5139794;27;20122;-59
2023/03/20 10:11:09;;;;;;;11.82;3.58;;;9.50;96.10;;;;;;5139866;27;20027;-60
2023/03/20 10:13:52;;;;;;;14.60;3.40;;;9.40;97.70;;;;;;5139684;27;20031;-60
2023/03/20 10:16:30;;;;;;;14.60;4.25;;;9.50;97.00;;;;;;5139668;27;20035;-60
2023/03/20 10:19:05;;;;;;;11.95;3.63;;;9.70;96.10;;;;;;5139503;27;20393;-59
2023/03/20 10:21:49;;;;;;;14.35;3.90;;;9.90;94.20;;;;;;5139459;27;20321;-58
2023/03/20 10:24:23;;;;;;;9.65;3.60;;;9.70;93.80;;;;;;5139435;27;20118;-58
2023/03/20 10:26:52;;;;;;;12.23;3.35;;;9.90;94.80;;;;;;5139990;27;20034;-59
2023/03/20 10:29:39;;;;;;;14.45;3.63;;;9.80;93.00;;;;;;5138769;27;20292;-61
2023/03/20 10:32:39;;;;;;;12.63;3.95;;;9.90;93.20;;;;;;5139280;27;20088;-58
2023/03/20 10:35:25;;;;;;;14.23;3.92;;;9.80;91.90;;;;;;5138439;27;20030;-60
2023/03/20 10:37:58;;;;;;;23.23;8.95;;;9.70;94.50;;;;;;5139069;27;20019;-60
2023/03/20 10:40:35;;;;;;;;;;;9.90;94.10;;;;;;5139191;27;20039;-58
2023/03/20 10:43:15;;;;;;;13.70;3.70;;;10.00;92.00;;;;;;5138143;27;19907;-58
2023/03/20 10:45:57;;;;;;;13.15;3.80;;;10.30;90.60;;;;;;5138209;27;20027;-59
2023/03/20 10:48:30;;;;;;;11.10;3.75;;;10.20;86.20;;;;;;5138176;27;20027;-59
2023/03/20 10:50:58;;;;;;;14.65;3.80;;;10.10;89.60;;;;;;5138921;27;20323;-60
2023/03/20 10:53:41;;;;;;;15.10;4.47;;;10.50;86.40;;;;;;5138936;27;20069;-58
2023/03/20 10:56:35;;;;;;;15.98;4.72;;;10.50;86.80;;;;;;5138751;27;20345;-59
2023/03/20 10:59:30;;;;;;;12.07;4.35;;;10.50;83.00;;;;;;5138748;27;20030;-58
2023/03/20 11:01:56;;;;;;;16.95;4.53;;;10.40;89.20;;;;;;5128009;27;20035;-59
2023/03/20 11:04:22;;;;;;;13.73;3.80;;;10.30;87.30;;;;;;5138828;27;20045;-59
2023/03/20 11:07:34;;;;;;;17.70;4.05;;;10.10;91.30;;;;;;5138675;27;20418;-59
2023/03/20 11:10:03;;;;;;;12.25;3.83;;;10.10;92.10;;;;;;5129878;27;20122;-58
2023/03/20 11:12:51;;;;;;;13.23;4.00;;;10.30;90.10;;;;;;5138431;27;20053;-59
2023/03/20 11:15:19;;;;;;;11.30;4.20;;;10.40;87.40;;;;;;5138767;27;20287;-59
2023/03/20 11:18:00;;;;;;;13.32;4.20;;;10.40;86.90;;;;;;5138375;27;20037;-59
2023/03/20 11:20:33;;;;;;;8.25;3.85;;;10.60;88.60;;;;;;5138484;27;20027;-59
2023/03/20 11:23:03;;;;;;;12.60;3.72;;;11.10;75.30;;;;;;5138930;27;20031;-60
2023/03/20 11:25:33;;;;;;;13.35;4.10;;;11.00;68.00;;;;;;5137674;27;20029;-59
2023/03/20 11:28:29;;;;;;;14.95;4.07;;;10.80;78.30;;;;;;5138863;27;20337;-59
2023/03/20 11:31:14;;;;;;;10.82;3.83;;;10.90;74.80;;;;;;5137465;27;20034;-60
2023/03/20 11:33:44;;;;;;;13.45;4.32;;;11.30;69.80;;;;;;5138146;27;20284;-59
2023/03/20 11:36:28;;;;;;;10.88;3.70;;;11.00;73.10;;;;;;5138171;27;20295;-59
2023/03/20 11:39:06;;;;;;;10.23;4.28;;;11.20;68.10;;;;;;5138189;27;20030;-59
2023/03/20 11:41:32;;;;;;;12.27;3.78;;;11.40;60.50;;;;;;5137975;27;20050;-59
2023/03/20 11:43:58;;;;;;;10.25;3.75;;;11.50;57.80;;;;;;5138568;27;20110;-58
2023/03/20 11:46:24;;;;;;;11.27;3.72;;;11.70;53.20;;;;;;5137981;27;20058;-59
2023/03/20 11:49:18;;;;;;;11.75;3.88;;;11.70;51.40;;;;;;5137975;27;20063;-59
2023/03/20 11:51:44;;;;;;;11.73;3.63;;;11.60;55.60;;;;;;5137273;27;20110;-59
2023/03/20 11:54:17;;;;;;;11.60;3.83;;;11.70;48.70;;;;;;5120156;28;20463;-59
2023/03/20 11:56:58;;;;;;;13.02;3.95;;;11.80;54.00;;;;;;5138045;27;20107;-58
2023/03/20 11:59:36;;;;;;;12.93;4.10;;;11.70;56.50;;;;;;5138383;27;20384;-62
2023/03/20 12:02:20;;;;;;;13.48;3.38;;;11.70;42.60;;;;;;5138029;27;20295;-61
2023/03/20 12:04:46;;;;;;;13.75;3.97;;;11.50;49.00;;;;;;5119980;28;20126;-60
2023/03/20 12:07:28;;;;;;;14.32;4.00;;;11.60;48.10;;;;;;5138364;27;20341;-59
2023/03/20 12:09:58;;;;;;;11.13;3.50;;;11.60;48.60;;;;;;5137807;27;20019;-59
2023/03/20 12:12:58;;;;;;;8.63;3.22;;;12.00;38.50;;;;;;5137170;28;20028;-59
2023/03/20 12:15:29;;;;;;;10.60;3.85;;;12.30;31.90;;;;;;5126483;27;20045;-60
2023/03/20 12:18:27;;;;;;;13.60;4.32;;;12.00;34.50;;;;;;5137722;28;20070;-59
2023/03/20 12:21:05;;;;;;;12.80;3.65;;;11.90;38.00;;;;;;5137853;27;20027;-59
2023/03/20 12:23:43;;;;;;;9.90;3.08;;;12.30;36.80;;;;;;5136988;28;20046;-59
2023/03/20 12:26:34;;;;;;;9.38;3.50;;;12.70;21.00;;;;;;5137631;28;20039;-58
2023/03/20 12:29:15;;;;;;;10.60;3.33;;;12.60;17.80;;;;;;5138116;27;20023;-59
2023/03/20 12:32:13;;;;;;;11.27;3.72;;;13.10;1.00;;;;;;5137681;28;20114;-59
2023/03/20 12:35:11;;;;;;;12.27;3.60;;;12.90;1.00;;;;;;5138015;27;20027;-59
2023/03/20 12:37:40;;;;;;;7.82;3.40;;;12.90;1.00;;;;;;5131731;28;20058;-59
2023/03/20 12:40:11;;;;;;;11.82;3.50;;;12.50;1.00;;;;;;5137365;27;20046;-59
2023/03/20 12:43:04;;;;;;;13.10;3.60;;;12.40;1.00;;;;;;5140018;27;20027;-58
2023/03/20 12:45:41;;;;;;;9.07;3.53;;;12.60;1.00;;;;;;5141407;27;20355;-59
2023/03/20 12:48:39;;;;;;;13.80;3.50;;;12.70;1.00;;;;;;5141909;27;20283;-60
2023/03/20 12:51:14;;;;;;;13.82;3.28;;;12.70;1.00;;;;;;5141267;27;20103;-58
2023/03/20 12:54:08;;;;;;;10.77;3.88;;;11.90;15.80;;;;;;5141188;27;20031;-58
2023/03/20 12:57:04;;;;;;;13.43;4.22;;;11.80;24.10;;;;;;5141217;27;20296;-59
2023/03/20 12:59:32;;;;;;;9.52;3.50;;;11.80;25.30;;;;;;5140293;27;20027;-58
2023/03/20 13:02:23;;;;;;;10.38;3.60;;;11.80;25.40;;;;;;5141609;27;20321;-58
2023/03/20 13:05:13;;;;;;;14.57;4.20;;;11.60;30.70;;;;;;5141420;27;20102;-58
2023/03/20 13:08:01;;;;;;;11.10;3.55;;;11.70;33.60;;;;;;5141018;27;20090;-58
2023/03/20 13:10:53;;;;;;;12.82;4.70;;;11.90;27.60;;;;;;5140908;27;20038;-58
2023/03/20 13:13:45;;;;;;;10.87;4.13;;;12.00;27.00;;;;;;5141225;27;20031;-58
2023/03/20 13:16:39;;;;;;;12.77;3.75;;;11.70;33.90;;;;;;5136561;27;20102;-58
2023/03/20 13:19:31;;;;;;;12.45;3.92;;;11.90;37.60;;;;;;5140631;27;20019;-59
2023/03/20 13:22:31;;;;;;;14.02;4.50;;;11.90;41.80;;;;;;5141040;27;20031;-60